Xin Dan Dong — BPBY — position and weather

sailwx.info

Track history (hours):
 
Tides and Currents Weather Stations Pressure Air Temp Water Temp Dewpoint Dewpoint Depression Visibility Wind Speed Wind Dir Waves Ship Positions

Xin Dan Dong

Last reported at 2016-Dec-01 13:34 UTC. Time now 2016-Dec-03 19:43 UTC.
Position N 20°10' E 110°20'.

Length 263 m; draft 12.8 m.

Type: Cargo ship. MMSI: 413153000.

Date/timePositionNaut miles runAvg speedWind from/ knotsBaromVisibWave heightAir tempDewpointWater temp
2016-Dec-01 13:34N 20°10' E 110°20'1110.7
2016-Dec-01 12:30N 20°09' E 110°08'  
2016-Nov-29 07:33N 20°10' E 110°06'1514.8
2016-Nov-29 06:32N 20°12' E 110°22'54 7.6
2016-Nov-28 23:27N 21°01' E 110°46'910.0
2016-Nov-28 22:33N 21°03' E 110°37'9 9.1
2016-Nov-28 21:33N 21°05' E 110°27'5 3.6
2016-Nov-28 20:15N 21°08' E 110°24'0 0.0
2016-Nov-28 19:33N 21°08' E 110°24'0 0.0
2016-Nov-28 18:33N 21°08' E 110°24'0 0.0
2016-Nov-28 17:33N 21°08' E 110°24'0 0.0
2016-Nov-28 16:33N 21°08' E 110°24'0 0.0
2016-Nov-28 15:03N 21°08' E 110°24'0 0.0
2016-Nov-28 14:30N 21°08' E 110°24'0 0.0
2016-Nov-28 13:15N 21°08' E 110°24'0 0.0
2016-Nov-28 12:33N 21°08' E 110°24'0 0.0
2016-Nov-28 11:09N 21°08' E 110°24'0 0.0
2016-Nov-28 10:27N 21°08' E 110°24'0 0.0
2016-Nov-28 08:33N 21°08' E 110°24'0 0.0
2016-Nov-28 07:30N 21°08' E 110°24'0 0.0
2016-Nov-28 06:33N 21°08' E 110°24'0 0.1
2016-Nov-28 05:32N 21°08' E 110°24'1 1.4
2016-Nov-28 04:33N 21°08' E 110°25'8 7.9
2016-Nov-28 03:33N 21°05' E 110°33'10 9.6
2016-Nov-28 02:33N 21°02' E 110°43'  
2016-Nov-23 08:07N 38°20' E 121°23'713.0
2016-Nov-23 07:33N 38°24' E 121°16'1312.8
2016-Nov-23 06:33N 38°30' E 121°01'11411.1
2016-Nov-22 20:19N 38°48' E 118°38'1012.8
2016-Nov-22 19:33N 38°50' E 118°25'2512.4
2016-Nov-22 17:32N 38°57' E 117°55'6 6.4
2016-Nov-22 16:33N 38°59' E 117°47'0 0.0
2016-Nov-22 15:27N 38°59' E 117°47'0 0.0
2016-Nov-22 14:33N 38°59' E 117°47'0 0.0
2016-Nov-22 13:21N 38°59' E 117°47'0 0.0
2016-Nov-22 10:33N 38°59' E 117°47'0 0.0
2016-Nov-22 09:33N 38°59' E 117°47'0 0.0
2016-Nov-22 08:33N 38°59' E 117°47'0 0.0
2016-Nov-22 07:27N 38°59' E 117°47'0 0.0
2016-Nov-22 05:09N 38°59' E 117°47'0 0.0
2016-Nov-22 04:21N 38°59' E 117°47'0 0.0
2016-Nov-22 03:27N 38°59' E 117°47'0 0.0
2016-Nov-22 02:15N 38°59' E 117°47'0 0.0
2016-Nov-21 23:33N 38°59' E 117°47'8 3.8
2016-Nov-21 21:33N 38°57' E 117°56'23 3.2
2016-Nov-21 14:19N 38°48' E 118°24'  
Track history (hours):
 
Tides and Currents Weather Stations Pressure Air Temp Water Temp Dewpoint Dewpoint Depression Visibility Wind Speed Wind Dir Waves Ship Positions

Xin Dan Dong

Last reported at 2016-Dec-01 13:34 UTC. Time now 2016-Dec-03 19:43 UTC.
Position N 20°10' E 110°20'.

Length 263 m; draft 12.8 m.

Type: Cargo ship. MMSI: 413153000.

Date/timePositionNaut miles runAvg speedWind from/ knotsBaromVisibWave heightAir tempDewpointWater temp
2016-Dec-01 13:34N 20°10' E 110°20'1110.7
2016-Dec-01 12:30N 20°09' E 110°08'  
2016-Nov-29 07:33N 20°10' E 110°06'1514.8
2016-Nov-29 06:32N 20°12' E 110°22'54 7.6
2016-Nov-28 23:27N 21°01' E 110°46'910.0
2016-Nov-28 22:33N 21°03' E 110°37'9 9.1
2016-Nov-28 21:33N 21°05' E 110°27'5 3.6
2016-Nov-28 20:15N 21°08' E 110°24'0 0.0
2016-Nov-28 19:33N 21°08' E 110°24'0 0.0
2016-Nov-28 18:33N 21°08' E 110°24'0 0.0
2016-Nov-28 17:33N 21°08' E 110°24'0 0.0
2016-Nov-28 16:33N 21°08' E 110°24'0 0.0
2016-Nov-28 15:03N 21°08' E 110°24'0 0.0
2016-Nov-28 14:30N 21°08' E 110°24'0 0.0
2016-Nov-28 13:15N 21°08' E 110°24'0 0.0
2016-Nov-28 12:33N 21°08' E 110°24'0 0.0
2016-Nov-28 11:09N 21°08' E 110°24'0 0.0
2016-Nov-28 10:27N 21°08' E 110°24'0 0.0
2016-Nov-28 08:33N 21°08' E 110°24'0 0.0
2016-Nov-28 07:30N 21°08' E 110°24'0 0.0
2016-Nov-28 06:33N 21°08' E 110°24'0 0.1
2016-Nov-28 05:32N 21°08' E 110°24'1 1.4
2016-Nov-28 04:33N 21°08' E 110°25'8 7.9
2016-Nov-28 03:33N 21°05' E 110°33'10 9.6
2016-Nov-28 02:33N 21°02' E 110°43'  
2016-Nov-23 08:07N 38°20' E 121°23'713.0
2016-Nov-23 07:33N 38°24' E 121°16'1312.8
2016-Nov-23 06:33N 38°30' E 121°01'11411.1
2016-Nov-22 20:19N 38°48' E 118°38'1012.8
2016-Nov-22 19:33N 38°50' E 118°25'2512.4
2016-Nov-22 17:32N 38°57' E 117°55'6 6.4
2016-Nov-22 16:33N 38°59' E 117°47'0 0.0
2016-Nov-22 15:27N 38°59' E 117°47'0 0.0
2016-Nov-22 14:33N 38°59' E 117°47'0 0.0
2016-Nov-22 13:21N 38°59' E 117°47'0 0.0
2016-Nov-22 10:33N 38°59' E 117°47'0 0.0
2016-Nov-22 09:33N 38°59' E 117°47'0 0.0
2016-Nov-22 08:33N 38°59' E 117°47'0 0.0
2016-Nov-22 07:27N 38°59' E 117°47'0 0.0
2016-Nov-22 05:09N 38°59' E 117°47'0 0.0
2016-Nov-22 04:21N 38°59' E 117°47'0 0.0
2016-Nov-22 03:27N 38°59' E 117°47'0 0.0
2016-Nov-22 02:15N 38°59' E 117°47'0 0.0
2016-Nov-21 23:33N 38°59' E 117°47'8 3.8
2016-Nov-21 21:33N 38°57' E 117°56'23 3.2
2016-Nov-21 14:19N 38°48' E 118°24'  

Dump ship's entire track history